createdAt,value
2018-06-10T00:01:25.461Z,43.76
2018-06-10T00:03:53.771Z,44.22
2018-06-10T00:06:22.299Z,46.04
2018-06-10T00:08:50.788Z,46.40
2018-06-10T00:11:19.076Z,46.50
2018-06-10T00:13:47.344Z,47.83
2018-06-10T00:16:15.974Z,47.10
2018-06-10T00:18:44.287Z,46.88
2018-06-10T00:21:12.645Z,49.36
2018-06-10T00:23:41.038Z,50.10
2018-06-10T00:26:09.273Z,49.21
2018-06-10T00:28:42.934Z,46.33
2018-06-10T00:31:11.175Z,47.63
2018-06-10T00:33:39.435Z,47.55
2018-06-10T00:36:07.723Z,47.17
2018-06-10T00:38:35.954Z,47.47
2018-06-10T00:41:04.266Z,46.22
2018-06-10T00:43:32.566Z,46.09
2018-06-10T00:46:01.022Z,46.61
2018-06-10T00:48:29.406Z,46.47
2018-06-10T00:50:57.757Z,45.76
2018-06-10T00:53:26.013Z,45.16
2018-06-10T00:55:54.296Z,45.47
2018-06-10T00:58:22.562Z,45.75
2018-06-10T01:00:50.869Z,44.85
2018-06-10T01:03:19.999Z,44.65
2018-06-10T01:05:48.250Z,44.18
2018-06-10T01:08:16.495Z,44.28
2018-06-10T01:10:44.737Z,45.52
2018-06-10T01:13:12.983Z,44.50
2018-06-10T01:15:41.285Z,44.74
2018-06-10T01:18:09.519Z,45.99
2018-06-10T01:20:37.764Z,45.12
2018-06-10T01:23:05.986Z,44.70
2018-06-10T01:25:34.219Z,45.40
2018-06-10T01:28:02.449Z,45.44
2018-06-10T01:30:30.688Z,45.19
2018-06-10T01:32:58.927Z,44.61
2018-06-10T01:35:27.215Z,45.46
2018-06-10T01:37:55.459Z,45.14
2018-06-10T01:40:23.693Z,45.00
2018-06-10T01:42:51.950Z,44.83
2018-06-10T01:45:20.183Z,45.79
2018-06-10T01:47:48.440Z,44.73
2018-06-10T01:50:16.682Z,44.57
2018-06-10T01:52:44.938Z,45.57
2018-06-10T01:55:13.190Z,44.43
2018-06-10T01:57:41.410Z,45.01
2018-06-10T02:00:09.643Z,45.38
2018-06-10T02:02:37.936Z,45.40
2018-06-10T02:05:06.985Z,45.25
2018-06-10T02:07:35.239Z,45.60
2018-06-10T02:10:03.551Z,46.44
2018-06-10T02:12:31.836Z,45.43
2018-06-10T02:15:00.137Z,45.47
2018-06-10T02:17:28.363Z,46.57
2018-06-10T02:19:56.608Z,47.00
2018-06-10T02:22:24.880Z,46.19
2018-06-10T02:24:53.131Z,45.95
2018-06-10T02:27:21.401Z,45.88
2018-06-10T02:29:49.608Z,45.99
2018-06-10T02:32:17.922Z,46.29
2018-06-10T02:34:46.169Z,46.09
2018-06-10T02:37:14.440Z,46.58
2018-06-10T02:39:42.660Z,45.95
2018-06-10T02:42:10.929Z,45.76
2018-06-10T02:44:40.069Z,47.15
2018-06-10T02:47:08.364Z,46.60
2018-06-10T02:49:36.596Z,46.97
2018-06-10T02:52:04.825Z,46.59
2018-06-10T02:54:33.081Z,46.46
2018-06-10T02:57:01.332Z,46.67
2018-06-10T02:59:29.624Z,47.59
2018-06-10T03:01:57.853Z,47.53
2018-06-10T03:04:26.125Z,47.95
2018-06-10T03:06:54.343Z,47.54
2018-06-10T03:09:22.605Z,47.94
2018-06-10T03:11:50.856Z,48.05
2018-06-10T03:14:19.143Z,48.04
2018-06-10T03:16:47.400Z,47.92
2018-06-10T03:19:15.631Z,47.53
2018-06-10T03:21:43.850Z,48.39
2018-06-10T03:24:12.076Z,48.18
2018-06-10T03:26:40.358Z,48.58
2018-06-10T03:29:08.548Z,48.34
2018-06-10T03:31:36.814Z,48.88
2018-06-10T03:34:05.053Z,49.52
2018-06-10T03:36:33.327Z,48.81
2018-06-10T03:39:01.566Z,48.61
2018-06-10T03:41:29.831Z,48.95
2018-06-10T03:43:58.096Z,49.51
2018-06-10T03:46:26.399Z,49.70
2018-06-10T03:48:54.645Z,49.18
2018-06-10T03:51:22.890Z,49.38
2018-06-10T03:53:51.291Z,49.68
2018-06-10T03:56:19.555Z,50.04
2018-06-10T03:58:47.822Z,50.37
2018-06-10T04:01:16.242Z,50.22
2018-06-10T04:03:44.749Z,50.38
2018-06-10T04:06:12.989Z,50.46
2018-06-10T04:08:41.216Z,51.68
2018-06-10T04:11:09.515Z,52.21
2018-06-10T04:13:37.759Z,52.89
2018-06-10T04:16:06.250Z,52.46
2018-06-10T04:18:34.514Z,51.40
2018-06-10T04:21:02.851Z,50.59
2018-06-10T04:23:31.241Z,50.12
2018-06-10T04:25:59.643Z,51.02
2018-06-10T04:28:27.902Z,51.01
2018-06-10T04:30:56.140Z,51.51
2018-06-10T04:33:24.470Z,51.02
2018-06-10T04:35:52.761Z,54.01
2018-06-10T04:38:21.103Z,53.78
2018-06-10T04:40:49.544Z,53.59
2018-06-10T04:43:17.802Z,56.13
2018-06-10T04:45:46.065Z,55.78
2018-06-10T04:48:14.344Z,55.87
2018-06-10T04:50:42.649Z,55.92
2018-06-10T04:53:10.973Z,55.76
2018-06-10T04:55:39.248Z,55.93
2018-06-10T04:58:07.495Z,56.51
2018-06-10T05:00:35.740Z,56.37
2018-06-10T05:03:03.956Z,56.37
2018-06-10T05:05:32.224Z,56.28
2018-06-10T05:08:00.445Z,58.63
2018-06-10T05:10:28.685Z,58.76
2018-06-10T05:12:56.911Z,55.41
2018-06-10T05:15:25.165Z,55.73
2018-06-10T05:17:53.406Z,54.17
2018-06-10T05:20:21.875Z,54.32
2018-06-10T05:22:50.144Z,55.48
2018-06-10T05:25:19.279Z,56.45
2018-06-10T05:27:47.596Z,55.07
2018-06-10T05:30:15.879Z,54.23
2018-06-10T05:32:44.140Z,55.47
2018-06-10T05:35:12.350Z,55.51
2018-06-10T05:37:40.620Z,55.87
2018-06-10T05:40:08.863Z,55.24
2018-06-10T05:42:37.124Z,55.56
2018-06-10T05:45:05.419Z,55.78
2018-06-10T05:47:33.687Z,55.52
2018-06-10T05:50:01.978Z,54.58
2018-06-10T05:52:30.371Z,55.96
2018-06-10T05:54:58.790Z,55.15
2018-06-10T05:57:27.059Z,56.03
2018-06-10T05:59:55.344Z,55.91
2018-06-10T06:02:23.572Z,55.90
2018-06-10T06:04:51.877Z,56.25
2018-06-10T06:07:20.111Z,57.02
2018-06-10T06:09:48.478Z,57.33
2018-06-10T06:12:16.717Z,57.72
2018-06-10T06:14:44.972Z,58.08
2018-06-10T06:17:13.246Z,57.14
2018-06-10T06:19:41.507Z,57.36
2018-06-10T06:22:09.758Z,56.76
2018-06-10T06:24:37.972Z,56.54
2018-06-10T06:27:06.217Z,56.80
2018-06-10T06:29:34.448Z,55.72
2018-06-10T06:32:02.805Z,56.37
2018-06-10T06:34:31.055Z,55.57
2018-06-10T06:36:59.386Z,55.09
2018-06-10T06:39:27.694Z,55.34
2018-06-10T06:41:56.668Z,55.36
2018-06-10T06:44:24.934Z,54.78
2018-06-10T06:46:53.231Z,54.90
2018-06-10T06:49:21.471Z,56.18
2018-06-10T06:51:49.729Z,56.30
2018-06-10T06:54:17.998Z,54.69
2018-06-10T06:56:46.262Z,55.38
2018-06-10T06:59:15.164Z,54.16
2018-06-10T07:01:43.404Z,55.56
2018-06-10T07:04:11.812Z,54.44
2018-06-10T07:06:40.059Z,54.48
2018-06-10T07:09:08.429Z,55.65
2018-06-10T07:11:36.975Z,54.54
2018-06-10T07:14:05.342Z,54.57
2018-06-10T07:16:33.832Z,54.19
2018-06-10T07:19:02.327Z,54.02
2018-06-10T07:21:30.593Z,53.95
2018-06-10T07:23:58.919Z,53.76
2018-06-10T07:26:27.188Z,52.78
2018-06-10T07:28:55.545Z,53.02
2018-06-10T07:31:23.859Z,52.90
2018-06-10T07:33:52.170Z,53.14
2018-06-10T07:36:20.484Z,53.36
2018-06-10T07:38:48.788Z,53.01
2018-06-10T07:41:17.133Z,53.97
2018-06-10T07:43:45.836Z,52.57
2018-06-10T07:46:14.097Z,53.13
2018-06-10T07:48:42.323Z,52.37
2018-06-10T07:51:10.582Z,52.68
2018-06-10T07:53:38.838Z,51.89
2018-06-10T07:56:07.149Z,50.67
2018-06-10T07:58:35.528Z,49.62
2018-06-10T08:01:03.777Z,50.49
2018-06-10T08:03:32.107Z,49.95
2018-06-10T08:06:00.339Z,49.51
2018-06-10T08:08:28.579Z,49.45
2018-06-10T08:10:56.824Z,49.42
2018-06-10T08:13:25.120Z,49.13
2018-06-10T08:15:53.344Z,49.69
2018-06-10T08:18:21.602Z,49.36
2018-06-10T08:20:49.800Z,49.55
2018-06-10T08:23:18.084Z,50.76
2018-06-10T08:25:46.453Z,50.49
2018-06-10T08:28:14.684Z,50.98
2018-06-10T08:30:43.025Z,50.74
2018-06-10T08:33:11.311Z,50.85
2018-06-10T08:35:39.589Z,51.48
2018-06-10T08:38:07.841Z,51.72
2018-06-10T08:40:36.142Z,50.74
2018-06-10T08:43:04.454Z,51.50
2018-06-10T08:45:32.734Z,52.64
2018-06-10T08:48:01.146Z,51.33
2018-06-10T08:50:29.442Z,51.84
2018-06-10T08:52:57.680Z,52.62
2018-06-10T08:55:25.935Z,52.23
2018-06-10T08:57:54.193Z,52.27
2018-06-10T09:00:22.485Z,52.66
2018-06-10T09:02:50.840Z,52.47
2018-06-10T09:05:19.735Z,51.43
2018-06-10T09:07:48.000Z,51.92
2018-06-10T09:10:16.268Z,53.87
2018-06-10T09:12:44.488Z,52.60
2018-06-10T09:15:12.731Z,53.09
2018-06-10T09:17:41.047Z,52.95
2018-06-10T09:20:09.351Z,53.90
2018-06-10T09:22:37.664Z,53.23
2018-06-10T09:25:06.127Z,53.91
2018-06-10T09:27:34.415Z,53.56
2018-06-10T09:30:02.702Z,54.35
2018-06-10T09:32:30.941Z,53.29
2018-06-10T09:34:59.170Z,54.17
2018-06-10T09:37:27.403Z,53.98
2018-06-10T09:39:55.729Z,53.93
2018-06-10T09:42:23.985Z,52.95
2018-06-10T09:44:52.224Z,53.76
2018-06-10T09:47:20.425Z,54.20
2018-06-10T09:49:48.679Z,56.09
2018-06-10T09:52:16.884Z,55.09
2018-06-10T09:54:45.160Z,54.94
2018-06-10T09:57:13.356Z,56.90
2018-06-10T09:59:41.740Z,56.10
2018-06-10T10:02:09.953Z,54.13
2018-06-10T10:04:39.112Z,53.47
2018-06-10T10:07:07.362Z,54.70
2018-06-10T10:09:36.014Z,54.21
2018-06-10T10:12:06.049Z,54.72
2018-06-10T10:14:34.319Z,54.19
2018-06-10T10:17:02.737Z,53.85
2018-06-10T10:19:30.991Z,52.02
2018-06-10T10:21:59.986Z,52.76
2018-06-10T10:24:28.288Z,53.19
2018-06-10T10:26:57.646Z,52.21
2018-06-10T10:29:26.764Z,53.93
2018-06-10T10:31:55.056Z,54.24
2018-06-10T10:34:23.297Z,53.24
2018-06-10T10:36:51.563Z,54.13
2018-06-10T10:39:19.928Z,54.32
2018-06-10T10:41:48.194Z,54.74
2018-06-10T10:44:16.483Z,54.09
2018-06-10T10:46:44.684Z,54.03
2018-06-10T10:49:12.932Z,53.12
2018-06-10T10:51:41.160Z,52.66
2018-06-10T10:54:09.455Z,53.61
2018-06-10T10:56:37.729Z,53.29
2018-06-10T10:59:06.026Z,55.01
2018-06-10T11:01:34.252Z,53.14
2018-06-10T11:04:02.511Z,54.47
2018-06-10T11:06:30.737Z,52.79
2018-06-10T11:08:58.978Z,53.25
2018-06-10T11:11:27.248Z,52.96
2018-06-10T11:13:55.476Z,54.82
2018-06-10T11:16:24.354Z,54.29
2018-06-10T11:18:52.665Z,53.85
2018-06-10T11:21:20.984Z,53.12
2018-06-10T11:23:50.313Z,53.41
2018-06-10T11:26:18.634Z,55.12
2018-06-10T11:28:46.935Z,53.46
2018-06-10T11:31:15.239Z,54.51
2018-06-10T11:33:43.498Z,55.03
2018-06-10T11:36:11.754Z,54.30
2018-06-10T11:38:39.961Z,53.10
2018-06-10T11:41:08.225Z,53.80
2018-06-10T11:43:36.433Z,53.72
2018-06-10T11:46:04.698Z,53.01
2018-06-10T11:48:32.952Z,53.03
2018-06-10T11:51:01.200Z,53.39
2018-06-10T11:53:29.423Z,52.48
2018-06-10T11:55:57.762Z,52.65
2018-06-10T11:58:26.045Z,55.66
2018-06-10T12:00:54.318Z,53.43
2018-06-10T12:03:22.974Z,55.64
2018-06-10T12:05:51.348Z,55.21
2018-06-10T12:08:19.653Z,55.19
2018-06-10T12:10:47.947Z,55.45
2018-06-10T12:13:16.265Z,55.03
2018-06-10T12:15:44.470Z,54.01
2018-06-10T12:18:12.714Z,54.99
2018-06-10T12:20:41.044Z,54.82
2018-06-10T12:23:09.342Z,53.82
2018-06-10T12:25:37.523Z,54.26
2018-06-10T12:28:05.929Z,53.42
2018-06-10T12:30:34.220Z,53.25
2018-06-10T12:33:02.465Z,54.28
2018-06-10T12:35:30.740Z,53.13
2018-06-10T12:37:59.696Z,53.32
2018-06-10T12:40:28.014Z,53.27
2018-06-10T12:42:56.255Z,51.77
2018-06-10T12:45:24.479Z,52.84
2018-06-10T12:47:52.724Z,52.35
2018-06-10T12:50:20.983Z,53.06
2018-06-10T12:52:49.249Z,53.46
2018-06-10T12:55:17.485Z,52.02
2018-06-10T12:57:45.721Z,52.43
2018-06-10T13:00:14.028Z,53.10
2018-06-10T13:02:42.272Z,52.83
2018-06-10T13:05:10.650Z,53.43
2018-06-10T13:07:39.002Z,53.43
2018-06-10T13:10:07.361Z,52.48
2018-06-10T13:12:35.589Z,51.55
2018-06-10T13:15:03.892Z,52.47
2018-06-10T13:17:32.161Z,51.95
2018-06-10T13:20:00.415Z,52.46
2018-06-10T13:22:28.667Z,54.14
2018-06-10T13:24:56.883Z,53.23
2018-06-10T13:27:25.172Z,54.30
2018-06-10T13:29:53.415Z,56.35
2018-06-10T13:32:21.686Z,54.76
2018-06-10T13:34:49.957Z,56.31
2018-06-10T13:37:18.252Z,54.67
2018-06-10T13:39:46.580Z,54.32
2018-06-10T13:42:14.869Z,56.33
2018-06-10T13:44:43.125Z,56.23
2018-06-10T13:47:11.439Z,55.42
2018-06-10T13:49:39.841Z,54.70
2018-06-10T13:52:08.066Z,54.19
2018-06-10T13:54:36.355Z,54.08
2018-06-10T13:57:04.577Z,54.06
2018-06-10T13:59:32.838Z,54.58
2018-06-10T14:02:01.115Z,53.64
2018-06-10T14:04:29.385Z,54.37
2018-06-10T14:06:57.611Z,53.46
2018-06-10T14:09:25.836Z,52.29
2018-06-10T14:11:54.123Z,51.80
2018-06-10T14:14:22.389Z,51.50
2018-06-10T14:16:50.594Z,51.27
2018-06-10T14:19:18.851Z,51.33
2018-06-10T14:21:47.092Z,51.08
2018-06-10T14:24:15.351Z,50.81
2018-06-10T14:26:43.563Z,51.57
2018-06-10T14:29:11.791Z,52.14
2018-06-10T14:31:40.023Z,53.69
2018-06-10T14:34:08.315Z,52.58
2018-06-10T14:36:36.552Z,53.02
2018-06-10T14:39:07.850Z,52.17
2018-06-10T14:41:36.102Z,52.41
2018-06-10T14:44:04.667Z,51.32
2018-06-10T14:46:32.905Z,53.31
2018-06-10T14:49:01.125Z,53.57
2018-06-10T14:51:29.364Z,54.30
2018-06-10T14:53:58.177Z,53.40
2018-06-10T14:56:32.165Z,54.11
2018-06-10T14:59:00.455Z,54.68
2018-06-10T15:01:28.709Z,53.14
2018-06-10T15:03:57.040Z,53.65
2018-06-10T15:06:25.293Z,52.47
2018-06-10T15:08:53.559Z,52.69
2018-06-10T15:11:21.821Z,53.71
2018-06-10T15:13:50.134Z,55.28
2018-06-10T15:16:18.388Z,55.02
2018-06-10T15:18:46.616Z,56.61
2018-06-10T15:21:15.465Z,56.88
2018-06-10T15:23:43.814Z,56.44
2018-06-10T15:26:12.049Z,56.81
2018-06-10T15:28:41.230Z,56.03
2018-06-10T15:31:09.950Z,56.84
2018-06-10T15:33:38.500Z,57.25
2018-06-10T15:36:06.906Z,57.44
2018-06-10T15:38:35.138Z,56.78
2018-06-10T15:41:03.567Z,56.60
2018-06-10T15:43:31.916Z,55.68
2018-06-10T15:46:00.679Z,54.33
2018-06-10T15:48:30.147Z,54.48
2018-06-10T15:50:59.274Z,53.66
2018-06-10T15:53:28.423Z,55.04
2018-06-10T15:55:57.150Z,54.81
2018-06-10T15:58:25.391Z,54.19
2018-06-10T16:00:53.678Z,54.57
2018-06-10T16:03:21.910Z,54.09
2018-06-10T16:05:53.187Z,53.89
2018-06-10T16:08:21.555Z,55.59
2018-06-10T16:10:50.092Z,55.36
2018-06-10T16:13:18.462Z,55.71
2018-06-10T16:15:46.787Z,55.37
2018-06-10T16:18:15.216Z,54.37
2018-06-10T16:20:43.519Z,54.87
2018-06-10T16:23:23.856Z,55.31
2018-06-10T16:25:52.241Z,54.65
2018-06-10T16:28:25.188Z,54.54
2018-06-10T16:30:55.075Z,55.66
2018-06-10T16:33:23.335Z,54.88
2018-06-10T16:35:51.761Z,55.22
2018-06-10T16:38:20.021Z,55.02
2018-06-10T16:40:48.328Z,55.98
2018-06-10T16:43:16.601Z,54.76
2018-06-10T16:45:44.830Z,55.44
2018-06-10T16:48:13.106Z,55.04
2018-06-10T16:50:41.317Z,55.60
2018-06-10T16:53:09.605Z,55.66
2018-06-10T16:55:37.892Z,55.81
2018-06-10T16:58:06.217Z,55.76
2018-06-10T17:00:34.570Z,55.55
2018-06-10T17:03:02.956Z,55.97
2018-06-10T17:05:31.253Z,56.78
2018-06-10T17:07:59.668Z,58.02
2018-06-10T17:10:29.180Z,57.91
2018-06-10T17:12:57.723Z,58.48
2018-06-10T17:15:26.633Z,58.43
2018-06-10T17:17:54.920Z,56.98
2018-06-10T17:20:23.234Z,56.73
2018-06-10T17:22:51.525Z,56.99
2018-06-10T17:25:19.795Z,56.44
2018-06-10T17:27:48.367Z,57.38
2018-06-10T17:30:16.836Z,57.23
2018-06-10T17:32:45.185Z,57.51
2018-06-10T17:35:13.614Z,56.51
2018-06-10T17:37:41.951Z,57.38
2018-06-10T17:40:10.349Z,57.25
2018-06-10T17:42:38.715Z,57.20
2018-06-10T17:45:07.066Z,56.94
2018-06-10T17:47:35.416Z,57.09
2018-06-10T17:50:03.696Z,56.41
2018-06-10T17:52:32.106Z,57.97
2018-06-10T17:55:00.454Z,56.70
2018-06-10T17:57:28.830Z,56.19
2018-06-10T17:59:57.127Z,57.31
2018-06-10T18:02:25.395Z,56.77
2018-06-10T18:04:54.102Z,55.65
2018-06-10T18:07:22.542Z,56.26
2018-06-10T18:09:51.407Z,56.45
2018-06-10T18:12:19.747Z,57.75
2018-06-10T18:14:48.069Z,56.50
2018-06-10T18:17:16.911Z,56.18
2018-06-10T18:19:45.240Z,56.56
2018-06-10T18:22:13.561Z,57.24
2018-06-10T18:24:41.865Z,57.76
2018-06-10T18:27:10.180Z,57.29
2018-06-10T18:29:38.667Z,55.90
2018-06-10T18:32:06.894Z,56.77
2018-06-10T18:34:35.215Z,57.06
2018-06-10T18:37:03.497Z,57.07
2018-06-10T18:39:33.402Z,57.37
2018-06-10T18:42:01.705Z,58.90
2018-06-10T18:44:30.037Z,58.54
2018-06-10T18:46:58.318Z,59.46
2018-06-10T18:49:26.585Z,59.87
2018-06-10T18:51:54.836Z,60.60
2018-06-10T18:54:23.107Z,59.28
2018-06-10T18:56:51.518Z,60.05
2018-06-10T18:59:19.848Z,59.41
2018-06-10T19:01:48.361Z,60.57
2018-06-10T19:04:16.685Z,60.46
2018-06-10T19:06:45.173Z,61.32
2018-06-10T19:09:13.441Z,60.77
2018-06-10T19:11:41.672Z,61.31
2018-06-10T19:14:09.901Z,61.11
2018-06-10T19:16:38.173Z,61.50
2018-06-10T19:19:06.447Z,63.06
2018-06-10T19:21:34.722Z,62.16
2018-06-10T19:24:03.025Z,62.97
2018-06-10T19:26:31.322Z,63.89
2018-06-10T19:28:59.784Z,63.64
2018-06-10T19:31:28.060Z,62.72
2018-06-10T19:33:56.324Z,63.35
2018-06-10T19:36:24.716Z,62.82
2018-06-10T19:38:53.062Z,63.62
2018-06-10T19:41:21.385Z,63.12
2018-06-10T19:43:49.670Z,63.59
2018-06-10T19:46:18.001Z,63.19
2018-06-10T19:48:46.264Z,62.92
2018-06-10T19:51:14.569Z,64.70
2018-06-10T19:53:43.036Z,63.39
2018-06-10T19:56:11.425Z,64.01
2018-06-10T19:58:39.725Z,63.11
2018-06-10T20:01:08.069Z,63.91
2018-06-10T20:03:36.386Z,63.91
2018-06-10T20:06:04.649Z,64.53
2018-06-10T20:08:33.001Z,65.02
2018-06-10T20:11:01.385Z,66.18
2018-06-10T20:13:29.828Z,64.77
2018-06-10T20:15:58.110Z,63.42
2018-06-10T20:18:26.357Z,63.52
2018-06-10T20:20:54.567Z,63.70
2018-06-10T20:23:22.857Z,63.98
2018-06-10T20:25:51.147Z,63.54
2018-06-10T20:28:19.431Z,63.67
2018-06-10T20:30:48.072Z,64.09
2018-06-10T20:33:16.432Z,63.48
2018-06-10T20:35:44.791Z,63.34
2018-06-10T20:38:13.048Z,63.58
2018-06-10T20:40:41.364Z,64.12
2018-06-10T20:43:09.744Z,64.32
2018-06-10T20:45:37.996Z,64.28
2018-06-10T20:48:06.305Z,63.45
2018-06-10T20:50:34.740Z,63.27
2018-06-10T20:53:03.034Z,63.81
2018-06-10T20:55:31.345Z,64.30
2018-06-10T20:57:59.583Z,63.64
2018-06-10T21:00:27.951Z,64.04
2018-06-10T21:02:56.290Z,64.59
2018-06-10T21:05:24.513Z,63.58
2018-06-10T21:07:52.786Z,64.89
2018-06-10T21:10:21.171Z,64.58
2018-06-10T21:12:49.401Z,62.91
2018-06-10T21:15:17.705Z,63.94
2018-06-10T21:17:46.056Z,63.23
2018-06-10T21:20:14.316Z,63.80
2018-06-10T21:22:42.583Z,63.67
2018-06-10T21:25:10.799Z,64.35
2018-06-10T21:27:39.034Z,64.46
2018-06-10T21:30:07.317Z,64.71
2018-06-10T21:32:35.623Z,64.76
2018-06-10T21:35:03.954Z,64.33
2018-06-10T21:37:32.181Z,65.59
2018-06-10T21:40:00.452Z,63.08
2018-06-10T21:42:28.627Z,63.51
2018-06-10T21:44:56.894Z,63.76
2018-06-10T21:47:25.180Z,63.79
2018-06-10T21:49:53.401Z,64.33
2018-06-10T21:52:21.653Z,64.89
2018-06-10T21:54:49.947Z,64.36
2018-06-10T21:57:18.164Z,65.18
2018-06-10T21:59:46.433Z,65.38
2018-06-10T22:02:14.672Z,64.69
2018-06-10T22:04:42.928Z,65.60
2018-06-10T22:07:11.233Z,65.58
2018-06-10T22:09:40.091Z,66.40
2018-06-10T22:12:08.361Z,65.85
2018-06-10T22:14:36.579Z,65.87
2018-06-10T22:17:04.933Z,64.83
2018-06-10T22:19:33.159Z,65.42
2018-06-10T22:22:02.013Z,67.06
2018-06-10T22:24:30.259Z,67.48
2018-06-10T22:26:58.569Z,67.39
2018-06-10T22:29:26.827Z,65.71
2018-06-10T22:31:55.192Z,64.43
2018-06-10T22:34:23.399Z,65.95
2018-06-10T22:36:52.188Z,66.99
2018-06-10T22:39:21.140Z,66.92
2018-06-10T22:41:49.388Z,65.94
2018-06-10T22:44:17.649Z,67.81
2018-06-10T22:46:47.084Z,66.95
2018-06-10T22:49:15.325Z,66.73
2018-06-10T22:51:43.571Z,67.81
2018-06-10T22:54:23.164Z,66.75
2018-06-10T22:56:51.437Z,66.66
2018-06-10T22:59:19.775Z,68.76
2018-06-10T23:01:48.066Z,66.46
2018-06-10T23:04:16.737Z,66.94
2018-06-10T23:06:44.946Z,68.36
2018-06-10T23:09:13.217Z,67.68
2018-06-10T23:11:41.537Z,67.06
2018-06-10T23:14:09.749Z,67.78
2018-06-10T23:16:38.017Z,68.71
2018-06-10T23:19:06.856Z,68.35
2018-06-10T23:21:35.117Z,68.64
2018-06-10T23:24:03.332Z,68.99
2018-06-10T23:26:31.612Z,68.51
2018-06-10T23:28:59.844Z,67.60
2018-06-10T23:31:28.123Z,68.76
2018-06-10T23:33:56.336Z,67.93
2018-06-10T23:36:24.578Z,68.57
2018-06-10T23:38:52.838Z,68.65
2018-06-10T23:41:21.055Z,69.78
2018-06-10T23:43:49.335Z,69.17
2018-06-10T23:46:17.565Z,69.88
2018-06-10T23:48:45.807Z,69.52
2018-06-10T23:51:14.033Z,70.38
2018-06-10T23:53:42.272Z,68.44
2018-06-10T23:56:10.484Z,69.56
2018-06-10T23:58:38.757Z,70.13
